createdAt,value
2023-07-31T00:02:06.736Z,96187.80
2023-07-31T00:04:34.715Z,96192.80
2023-07-31T00:07:05.478Z,96191.80
2023-07-31T00:09:34.396Z,96186.20
2023-07-31T00:12:02.445Z,96185.00
2023-07-31T00:14:30.411Z,96182.00
2023-07-31T00:16:58.395Z,96182.60
2023-07-31T00:19:26.381Z,96188.60
2023-07-31T00:21:54.489Z,96190.40
2023-07-31T00:24:22.505Z,96188.40
2023-07-31T00:26:50.487Z,96191.00
2023-07-31T00:29:18.543Z,96189.20
2023-07-31T00:31:46.666Z,96192.80
2023-07-31T00:34:14.721Z,96190.60
2023-07-31T00:36:42.640Z,96192.40
2023-07-31T00:39:10.819Z,96190.60
2023-07-31T00:41:38.740Z,96188.00
2023-07-31T00:44:06.618Z,96186.20
2023-07-31T00:46:35.282Z,96182.80
2023-07-31T00:49:04.514Z,96181.00
2023-07-31T00:51:32.718Z,96186.80
2023-07-31T00:54:00.765Z,96187.40
2023-07-31T00:56:29.194Z,96187.60
2023-07-31T00:58:57.155Z,96191.20
2023-07-31T01:01:25.295Z,96188.20
2023-07-31T01:03:54.934Z,96188.20
2023-07-31T01:06:34.819Z,96188.80
2023-07-31T01:09:05.083Z,96190.40
2023-07-31T01:11:35.836Z,96194.40
2023-07-31T01:14:03.821Z,96188.20
2023-07-31T01:16:32.076Z,96190.00
2023-07-31T01:19:00.279Z,96189.20
2023-07-31T01:21:36.256Z,96184.80
2023-07-31T01:24:29.210Z,96187.00
2023-07-31T01:27:18.444Z,96189.00
2023-07-31T01:30:15.925Z,96188.40
2023-07-31T01:32:44.993Z,96189.00
2023-07-31T01:35:13.094Z,96187.00
2023-07-31T01:37:41.195Z,96186.60
2023-07-31T01:40:09.925Z,96194.00
2023-07-31T01:42:38.109Z,96193.00
2023-07-31T01:45:06.851Z,96189.20
2023-07-31T01:47:34.914Z,96186.00
2023-07-31T01:50:02.929Z,96196.40
2023-07-31T01:52:31.267Z,96196.80
2023-07-31T01:54:59.299Z,96199.60
2023-07-31T01:57:27.457Z,96197.00
2023-07-31T01:59:55.494Z,96202.60
2023-07-31T02:02:24.345Z,96202.60
2023-07-31T02:04:53.519Z,96204.60
2023-07-31T02:07:21.647Z,96210.00
2023-07-31T02:09:49.631Z,96217.40
2023-07-31T02:12:18.212Z,96222.40
2023-07-31T02:14:46.382Z,96228.00
2023-07-31T02:17:14.399Z,96235.40
2023-07-31T02:19:43.478Z,96240.20
2023-07-31T02:22:11.673Z,96238.40
2023-07-31T02:24:39.686Z,96239.80
2023-07-31T02:27:07.853Z,96236.00
2023-07-31T02:29:35.903Z,96236.60
2023-07-31T02:32:04.395Z,96243.40
2023-07-31T02:34:32.452Z,96239.40
2023-07-31T02:37:00.555Z,96236.60
2023-07-31T02:39:28.568Z,96230.80
2023-07-31T02:41:56.720Z,96229.00
2023-07-31T02:44:25.394Z,96228.60
2023-07-31T02:46:53.345Z,96226.00
2023-07-31T02:49:21.234Z,96225.40
2023-07-31T02:51:49.203Z,96228.40
2023-07-31T02:54:17.183Z,96226.20
2023-07-31T02:56:45.159Z,96228.20
2023-07-31T02:59:13.415Z,96221.20
2023-07-31T03:01:41.523Z,96220.80
2023-07-31T03:04:09.595Z,96218.20
2023-07-31T03:06:38.221Z,96222.60
2023-07-31T03:09:06.410Z,96221.40
2023-07-31T03:11:34.463Z,96227.60
2023-07-31T03:14:02.408Z,96228.00
2023-07-31T03:16:30.324Z,96218.80
2023-07-31T03:18:58.275Z,96221.20
2023-07-31T03:21:26.289Z,96231.40
2023-07-31T03:23:54.510Z,96233.60
2023-07-31T03:26:22.629Z,96232.40
2023-07-31T03:28:50.856Z,96230.60
2023-07-31T03:31:18.909Z,96234.80
2023-07-31T03:33:46.982Z,96236.00
2023-07-31T03:36:15.016Z,96242.80
2023-07-31T03:38:44.524Z,96240.00
2023-07-31T03:41:12.648Z,96245.80
2023-07-31T03:43:40.729Z,96244.80
2023-07-31T03:46:09.577Z,96246.60
2023-07-31T03:48:38.052Z,96245.20
2023-07-31T03:51:06.036Z,96242.40
2023-07-31T03:53:33.978Z,96248.80
2023-07-31T03:56:02.034Z,96244.60
2023-07-31T03:58:29.941Z,96249.00
2023-07-31T04:00:57.922Z,96251.60
2023-07-31T04:03:25.973Z,96249.40
2023-07-31T04:05:55.591Z,96246.60
2023-07-31T04:08:24.087Z,96248.40
2023-07-31T04:10:52.197Z,96247.40
2023-07-31T04:13:20.739Z,96243.20
2023-07-31T04:15:52.112Z,96244.00
2023-07-31T04:18:20.080Z,96238.60
2023-07-31T04:20:48.023Z,96240.60
2023-07-31T04:23:16.032Z,96243.20
2023-07-31T04:25:43.980Z,96240.60
2023-07-31T04:28:12.108Z,96241.80
2023-07-31T04:30:41.203Z,96246.00
2023-07-31T04:33:09.282Z,96251.80
2023-07-31T04:35:37.322Z,96254.20
2023-07-31T04:38:05.345Z,96255.00
2023-07-31T04:40:33.357Z,96252.00
2023-07-31T04:43:01.386Z,96256.80
2023-07-31T04:45:29.344Z,96258.00
2023-07-31T04:47:57.379Z,96257.60
2023-07-31T04:50:25.536Z,96252.80
2023-07-31T04:52:53.614Z,96253.00
2023-07-31T04:55:21.516Z,96254.40
2023-07-31T04:57:49.518Z,96256.00
2023-07-31T05:00:18.001Z,96258.00
2023-07-31T05:02:46.181Z,96253.80
2023-07-31T05:05:14.428Z,96258.00
2023-07-31T05:07:42.416Z,96263.40
2023-07-31T05:10:10.440Z,96262.00
2023-07-31T05:12:38.520Z,96260.20
2023-07-31T05:15:07.031Z,96263.00
2023-07-31T05:17:35.083Z,96263.60
2023-07-31T05:20:03.772Z,96263.20
2023-07-31T05:22:31.982Z,96259.40
2023-07-31T05:25:00.166Z,96253.80
2023-07-31T05:27:28.193Z,96260.60
2023-07-31T05:29:56.189Z,96263.40
2023-07-31T05:32:24.361Z,96262.40
2023-07-31T05:34:53.655Z,96256.20
2023-07-31T05:37:21.605Z,96265.00
2023-07-31T05:39:49.559Z,96271.00
2023-07-31T05:42:17.593Z,96271.20
2023-07-31T05:44:45.594Z,96279.60
2023-07-31T05:47:13.541Z,96282.20
2023-07-31T05:49:41.870Z,96285.00
2023-07-31T05:52:09.858Z,96283.00
2023-07-31T05:54:37.875Z,96289.60
2023-07-31T05:57:06.236Z,96294.20
2023-07-31T05:59:34.332Z,96295.60
2023-07-31T06:02:02.501Z,96296.20
2023-07-31T06:04:30.633Z,96295.00
2023-07-31T06:06:58.784Z,96289.60
2023-07-31T06:09:27.053Z,96288.40
2023-07-31T06:11:55.061Z,96289.80
2023-07-31T06:14:23.031Z,96300.00
2023-07-31T06:16:51.136Z,96303.40
2023-07-31T06:19:19.140Z,96299.80
2023-07-31T06:21:47.302Z,96300.40
2023-07-31T06:24:20.088Z,96301.00
2023-07-31T06:26:48.296Z,96303.00
2023-07-31T06:29:16.288Z,96299.60
2023-07-31T06:31:44.643Z,96297.20
2023-07-31T06:34:12.799Z,96300.40
2023-07-31T06:36:41.205Z,96304.60
2023-07-31T06:39:10.191Z,96303.40
2023-07-31T06:41:39.387Z,96303.20
2023-07-31T06:44:07.702Z,96300.40
2023-07-31T06:46:35.761Z,96300.40
2023-07-31T06:49:03.688Z,96300.60
2023-07-31T06:51:32.670Z,96297.20
2023-07-31T06:54:00.730Z,96296.80
2023-07-31T06:56:29.172Z,96301.60
2023-07-31T06:58:57.404Z,96303.00
2023-07-31T07:01:25.737Z,96303.20
2023-07-31T07:03:54.484Z,96302.20
2023-07-31T07:06:23.823Z,96309.60
2023-07-31T07:08:51.970Z,96309.60
2023-07-31T07:11:20.244Z,96313.20
2023-07-31T07:13:48.415Z,96310.80
2023-07-31T07:16:16.600Z,96311.00
2023-07-31T07:18:58.378Z,96310.80
2023-07-31T07:21:30.965Z,96316.40
2023-07-31T07:23:58.974Z,96326.00
2023-07-31T07:26:27.461Z,96321.40
2023-07-31T07:28:55.650Z,96323.00
2023-07-31T07:31:23.711Z,96321.20
2023-07-31T07:33:52.032Z,96319.40
2023-07-31T07:36:20.264Z,96320.60
2023-07-31T07:38:48.325Z,96321.20
2023-07-31T07:41:16.458Z,96322.40
2023-07-31T07:43:44.689Z,96320.80
2023-07-31T07:46:13.024Z,96320.80
2023-07-31T07:48:41.105Z,96319.80
2023-07-31T07:51:09.196Z,96322.80
2023-07-31T07:53:37.234Z,96327.40
2023-07-31T07:56:05.366Z,96328.40
2023-07-31T07:58:33.419Z,96323.60
2023-07-31T08:01:01.440Z,96328.40
2023-07-31T08:03:29.607Z,96334.80
2023-07-31T08:06:01.264Z,96330.60
2023-07-31T08:08:29.472Z,96335.00
2023-07-31T08:10:57.509Z,96332.40
2023-07-31T08:13:25.705Z,96336.40
2023-07-31T08:15:53.748Z,96337.40
2023-07-31T08:18:21.757Z,96334.20
2023-07-31T08:20:50.393Z,96332.40
2023-07-31T08:23:18.599Z,96331.80
2023-07-31T08:25:46.640Z,96332.20
2023-07-31T08:28:14.622Z,96329.00
2023-07-31T08:30:43.278Z,96331.40
2023-07-31T08:33:11.329Z,96332.60
2023-07-31T08:35:39.652Z,96336.40
2023-07-31T08:38:07.608Z,96333.40
2023-07-31T08:40:41.658Z,96334.60
2023-07-31T08:43:09.956Z,96339.20
2023-07-31T08:45:38.298Z,96338.40
2023-07-31T08:48:06.461Z,96339.00
2023-07-31T08:50:34.458Z,96336.20
2023-07-31T08:53:02.368Z,96339.00
2023-07-31T08:55:32.437Z,96333.80
2023-07-31T08:58:00.460Z,96333.60
2023-07-31T09:00:28.585Z,96329.60
2023-07-31T09:03:04.411Z,96329.80
2023-07-31T09:05:32.732Z,96321.40
2023-07-31T09:08:01.017Z,96327.00
2023-07-31T09:10:29.043Z,96330.40
2023-07-31T09:12:56.967Z,96328.00
2023-07-31T09:15:36.893Z,96325.80
2023-07-31T09:18:07.371Z,96323.20
2023-07-31T09:20:35.872Z,96322.20
2023-07-31T09:23:23.013Z,96321.40
2023-07-31T09:25:51.077Z,96314.40
2023-07-31T09:28:19.212Z,96322.60
2023-07-31T09:30:51.256Z,96315.00
2023-07-31T09:33:19.826Z,96316.40
2023-07-31T09:35:49.455Z,96310.20
2023-07-31T09:38:17.908Z,96315.60
2023-07-31T09:40:47.450Z,96306.80
2023-07-31T09:43:22.061Z,96313.20
2023-07-31T09:45:57.566Z,96304.40
2023-07-31T09:48:28.601Z,96306.60
2023-07-31T09:50:56.785Z,96304.00
2023-07-31T09:53:31.647Z,96304.40
2023-07-31T09:56:01.520Z,96304.60
2023-07-31T09:58:30.104Z,96303.00
2023-07-31T10:01:00.638Z,96297.80
2023-07-31T10:03:28.817Z,96300.20
2023-07-31T10:05:57.174Z,96292.00
2023-07-31T10:08:31.081Z,96295.80
2023-07-31T10:10:59.777Z,96287.40
2023-07-31T10:13:28.718Z,96292.60
2023-07-31T10:15:59.646Z,96295.20
2023-07-31T10:18:27.778Z,96291.40
2023-07-31T10:20:56.391Z,96297.80
2023-07-31T10:23:26.098Z,96302.00
2023-07-31T10:25:55.496Z,96306.40
2023-07-31T10:28:23.607Z,96303.20
2023-07-31T10:30:51.863Z,96302.00
2023-07-31T10:33:21.477Z,96297.80
2023-07-31T10:35:49.829Z,96295.80
2023-07-31T10:38:17.881Z,96292.20
2023-07-31T10:40:47.051Z,96294.60
2023-07-31T10:43:28.510Z,96290.40
2023-07-31T10:45:56.708Z,96285.80
2023-07-31T10:48:25.413Z,96287.40
2023-07-31T10:50:57.160Z,96285.00
2023-07-31T10:53:32.541Z,96286.20
2023-07-31T10:56:07.605Z,96295.60
2023-07-31T10:58:36.304Z,96292.00
2023-07-31T11:01:05.426Z,96292.20
2023-07-31T11:03:50.438Z,96289.00
2023-07-31T11:06:19.836Z,96282.60
2023-07-31T11:08:51.910Z,96276.40
2023-07-31T11:11:21.122Z,96275.20
2023-07-31T11:13:55.932Z,96276.80
2023-07-31T11:16:25.270Z,96281.00
2023-07-31T11:18:55.345Z,96275.60
2023-07-31T11:21:25.028Z,96276.80
2023-07-31T11:24:02.324Z,96283.80
2023-07-31T11:26:32.014Z,96280.80
2023-07-31T11:29:00.099Z,96282.20
2023-07-31T11:31:28.225Z,96278.20
2023-07-31T11:34:06.789Z,96276.20
2023-07-31T11:36:35.185Z,96273.40
2023-07-31T11:39:07.678Z,96272.80
2023-07-31T11:41:35.748Z,96274.60
2023-07-31T11:44:17.249Z,96275.40
2023-07-31T11:46:52.220Z,96274.40
2023-07-31T11:49:20.360Z,96270.80
2023-07-31T11:51:48.690Z,96276.20
2023-07-31T11:54:16.760Z,96273.80
2023-07-31T11:56:44.953Z,96261.00
2023-07-31T11:59:14.047Z,96268.40
2023-07-31T12:01:42.194Z,96268.00
2023-07-31T12:04:10.234Z,96264.60
2023-07-31T12:06:38.903Z,96267.80
2023-07-31T12:09:07.426Z,96267.60
2023-07-31T12:11:48.288Z,96262.00
2023-07-31T12:14:26.194Z,96259.00
2023-07-31T12:16:55.981Z,96245.20
2023-07-31T12:19:24.411Z,96247.40
2023-07-31T12:21:52.361Z,96241.80
2023-07-31T12:24:20.524Z,96241.80
2023-07-31T12:26:49.456Z,96231.80
2023-07-31T12:29:17.473Z,96234.60
2023-07-31T12:31:45.522Z,96236.80
2023-07-31T12:34:20.169Z,96244.40
2023-07-31T12:36:50.280Z,96239.60
2023-07-31T12:39:18.620Z,96244.60
2023-07-31T12:41:46.671Z,96239.80
2023-07-31T12:44:14.712Z,96237.80
2023-07-31T12:46:43.294Z,96230.20
2023-07-31T12:49:11.593Z,96224.60
2023-07-31T12:51:40.155Z,96221.00
2023-07-31T12:54:08.557Z,96222.00
2023-07-31T12:56:36.745Z,96219.00
2023-07-31T12:59:04.854Z,96217.80
2023-07-31T13:01:33.019Z,96213.40
2023-07-31T13:04:01.249Z,96211.40
2023-07-31T13:06:29.548Z,96219.80
2023-07-31T13:08:57.608Z,96213.20
2023-07-31T13:11:27.976Z,96214.00
2023-07-31T13:13:56.066Z,96215.80
2023-07-31T13:16:24.018Z,96212.00
2023-07-31T13:18:53.037Z,96218.00
2023-07-31T13:21:22.796Z,96217.40
2023-07-31T13:23:50.849Z,96221.40
2023-07-31T13:26:18.827Z,96220.20
2023-07-31T13:28:47.058Z,96222.60
2023-07-31T13:31:15.356Z,96220.60
2023-07-31T13:33:44.592Z,96218.20
2023-07-31T13:36:15.279Z,96218.80
2023-07-31T13:38:43.485Z,96219.80
2023-07-31T13:41:11.542Z,96220.80
2023-07-31T13:43:39.918Z,96217.20
2023-07-31T13:46:08.755Z,96231.60
2023-07-31T13:48:37.341Z,96238.20
2023-07-31T13:51:05.656Z,96228.40
2023-07-31T13:53:33.685Z,96227.60
2023-07-31T13:56:02.073Z,96223.40
2023-07-31T13:58:30.068Z,96221.20
2023-07-31T14:00:58.100Z,96226.00
2023-07-31T14:03:26.164Z,96231.00
2023-07-31T14:05:54.605Z,96232.20
2023-07-31T14:08:22.982Z,96231.60
2023-07-31T14:10:50.988Z,96238.00
2023-07-31T14:13:19.220Z,96232.00
2023-07-31T14:15:47.347Z,96228.40
2023-07-31T14:18:15.491Z,96220.20
2023-07-31T14:20:43.704Z,96210.40
2023-07-31T14:23:12.426Z,96201.40
2023-07-31T14:25:40.472Z,96201.40
2023-07-31T14:28:08.585Z,96199.60
2023-07-31T14:30:36.613Z,96210.60
2023-07-31T14:33:04.889Z,96209.00
2023-07-31T14:35:32.982Z,96206.20
2023-07-31T14:38:00.909Z,96205.20
2023-07-31T14:40:29.086Z,96210.40
2023-07-31T14:42:57.088Z,96212.40
2023-07-31T14:45:25.154Z,96208.60
2023-07-31T14:47:55.547Z,96210.40
2023-07-31T14:50:24.419Z,96217.80
2023-07-31T14:52:52.550Z,96218.20
2023-07-31T14:55:20.725Z,96218.60
2023-07-31T14:57:49.019Z,96220.00
2023-07-31T15:00:17.292Z,96219.80
2023-07-31T15:02:46.502Z,96228.40
2023-07-31T15:05:14.803Z,96225.40
2023-07-31T15:07:43.050Z,96227.20
2023-07-31T15:10:11.063Z,96227.40
2023-07-31T15:12:41.473Z,96229.20
2023-07-31T15:15:09.817Z,96222.40
2023-07-31T15:17:38.031Z,96211.80
2023-07-31T15:20:07.110Z,96204.20
2023-07-31T15:22:35.098Z,96208.00
2023-07-31T15:25:03.083Z,96208.20
2023-07-31T15:27:30.980Z,96214.00
2023-07-31T15:29:59.126Z,96215.20
2023-07-31T15:32:27.109Z,96213.00
2023-07-31T15:34:55.197Z,96215.60
2023-07-31T15:37:23.355Z,96207.60
2023-07-31T15:39:51.345Z,96206.40
2023-07-31T15:42:19.339Z,96206.60
2023-07-31T15:44:47.464Z,96202.80
2023-07-31T15:47:15.577Z,96208.00
2023-07-31T15:49:43.636Z,96205.80
2023-07-31T15:52:11.825Z,96206.20
2023-07-31T15:54:39.839Z,96203.40
2023-07-31T15:57:08.081Z,96204.80
2023-07-31T15:59:36.062Z,96204.00
2023-07-31T16:02:04.293Z,96204.60
2023-07-31T16:04:32.471Z,96200.40
2023-07-31T16:07:00.662Z,96196.80
2023-07-31T16:09:28.955Z,96199.60
2023-07-31T16:12:00.016Z,96201.20
2023-07-31T16:14:28.616Z,96198.20
2023-07-31T16:16:56.735Z,96193.20
2023-07-31T16:19:27.138Z,96199.00
2023-07-31T16:21:55.205Z,96201.60
2023-07-31T16:24:23.355Z,96205.40
2023-07-31T16:26:51.502Z,96204.00
2023-07-31T16:29:19.622Z,96207.20
2023-07-31T16:31:57.523Z,96211.20
2023-07-31T16:34:27.802Z,96213.00
2023-07-31T16:36:57.122Z,96215.00
2023-07-31T16:39:25.689Z,96211.20
2023-07-31T16:41:54.993Z,96213.60
2023-07-31T16:44:23.083Z,96218.80
2023-07-31T16:46:51.217Z,96214.20
2023-07-31T16:49:23.313Z,96217.60
2023-07-31T16:51:51.495Z,96218.80
2023-07-31T16:54:19.568Z,96215.60
2023-07-31T16:56:59.563Z,96221.80
2023-07-31T16:59:31.225Z,96223.80
2023-07-31T17:02:00.545Z,96221.80
2023-07-31T17:04:32.287Z,96226.60
2023-07-31T17:07:02.881Z,96219.20
2023-07-31T17:09:35.430Z,96221.60
2023-07-31T17:12:04.330Z,96230.00
2023-07-31T17:14:35.336Z,96232.60
2023-07-31T17:17:05.825Z,96235.00
2023-07-31T17:19:36.642Z,96240.40
2023-07-31T17:22:04.875Z,96238.20
2023-07-31T17:24:35.587Z,96242.20
2023-07-31T17:27:06.444Z,96245.40
2023-07-31T17:29:36.921Z,96242.40
2023-07-31T17:34:42.747Z,96239.60
2023-07-31T17:37:10.774Z,96237.40
2023-07-31T17:39:41.347Z,96235.60
2023-07-31T17:42:18.927Z,96242.80
2023-07-31T17:44:57.101Z,96241.20
2023-07-31T17:47:25.156Z,96241.00
2023-07-31T17:49:55.632Z,96239.40
2023-07-31T17:52:23.901Z,96244.00
2023-07-31T17:54:55.343Z,96251.00
2023-07-31T17:57:24.152Z,96248.20
2023-07-31T17:59:53.640Z,96256.80
2023-07-31T18:02:21.991Z,96257.40
2023-07-31T18:04:50.100Z,96258.00
2023-07-31T18:07:18.128Z,96260.40
2023-07-31T18:09:46.361Z,96265.00
2023-07-31T18:12:14.499Z,96270.60
2023-07-31T18:14:42.632Z,96265.60
2023-07-31T18:17:12.655Z,96273.80
2023-07-31T18:19:40.734Z,96275.80
2023-07-31T18:22:08.905Z,96286.00
2023-07-31T18:24:36.992Z,96291.80
2023-07-31T18:27:05.382Z,96292.20
2023-07-31T18:29:33.474Z,96290.40
2023-07-31T18:32:01.472Z,96294.40
2023-07-31T18:34:31.097Z,96292.00
2023-07-31T18:36:59.053Z,96295.20
2023-07-31T18:39:27.100Z,96296.60
2023-07-31T18:41:55.256Z,96299.00
2023-07-31T18:44:23.164Z,96302.00
2023-07-31T18:46:51.220Z,96307.20
2023-07-31T18:49:19.278Z,96312.40
2023-07-31T18:51:48.573Z,96316.20
2023-07-31T18:54:16.614Z,96317.80
2023-07-31T18:56:44.715Z,96318.60
2023-07-31T18:59:15.276Z,96315.20
2023-07-31T19:01:45.448Z,96318.80
2023-07-31T19:04:13.498Z,96317.00
2023-07-31T19:06:41.918Z,96315.80
2023-07-31T19:09:13.712Z,96324.20
2023-07-31T19:11:42.976Z,96327.00
2023-07-31T19:14:11.022Z,96327.20
2023-07-31T19:16:39.332Z,96327.60
2023-07-31T19:19:07.704Z,96329.00
2023-07-31T19:21:35.749Z,96330.60
2023-07-31T19:24:04.006Z,96330.00
2023-07-31T19:26:32.250Z,96329.40
2023-07-31T19:29:00.433Z,96332.80
2023-07-31T19:31:28.533Z,96332.60
2023-07-31T19:33:56.552Z,96332.00
2023-07-31T19:36:24.690Z,96326.80
2023-07-31T19:38:52.823Z,96324.80
2023-07-31T19:41:21.055Z,96325.40
2023-07-31T19:43:49.286Z,96321.60
2023-07-31T19:46:17.580Z,96324.20
2023-07-31T19:48:45.713Z,96324.00
2023-07-31T19:51:13.940Z,96321.20
2023-07-31T19:53:41.859Z,96320.20
2023-07-31T19:56:09.827Z,96321.20
2023-07-31T19:58:38.027Z,96319.20
2023-07-31T20:01:06.063Z,96319.00
2023-07-31T20:03:34.165Z,96322.20
2023-07-31T20:06:02.290Z,96319.60
2023-07-31T20:08:30.313Z,96317.80
2023-07-31T20:11:00.947Z,96314.60
2023-07-31T20:13:30.130Z,96318.80
2023-07-31T20:15:58.477Z,96314.80
2023-07-31T20:18:26.659Z,96313.60
2023-07-31T20:20:55.133Z,96311.60
2023-07-31T20:23:32.765Z,96312.40
2023-07-31T20:26:10.443Z,96315.20
2023-07-31T20:28:39.178Z,96316.00
2023-07-31T20:31:07.276Z,96316.20
2023-07-31T20:33:35.219Z,96315.60
2023-07-31T20:36:05.762Z,96312.80
2023-07-31T20:38:33.723Z,96314.00
2023-07-31T20:41:01.746Z,96309.60
2023-07-31T20:43:29.723Z,96314.20
2023-07-31T20:45:57.721Z,96312.20
2023-07-31T20:48:25.953Z,96304.80
2023-07-31T20:50:54.306Z,96302.60
2023-07-31T20:53:22.374Z,96299.00
2023-07-31T20:55:50.424Z,96302.60
2023-07-31T20:58:18.737Z,96302.20
2023-07-31T21:00:46.880Z,96300.60
2023-07-31T21:03:15.193Z,96295.40
2023-07-31T21:05:50.532Z,96298.40
2023-07-31T21:08:18.827Z,96299.60
2023-07-31T21:10:46.979Z,96302.80
2023-07-31T21:13:15.028Z,96305.80
2023-07-31T21:15:43.195Z,96305.40
2023-07-31T21:18:11.146Z,96309.20
2023-07-31T21:20:39.722Z,96306.00
2023-07-31T21:23:09.350Z,96304.40
2023-07-31T21:25:37.528Z,96303.60
2023-07-31T21:28:05.761Z,96302.20
2023-07-31T21:30:35.576Z,96300.80
2023-07-31T21:33:03.922Z,96304.40
2023-07-31T21:35:32.241Z,96302.40
2023-07-31T21:38:00.618Z,96295.80
2023-07-31T21:40:28.816Z,96299.60
2023-07-31T21:42:58.028Z,96300.80
2023-07-31T21:45:26.957Z,96304.00
2023-07-31T21:47:55.051Z,96305.20
2023-07-31T21:50:23.346Z,96301.80
2023-07-31T21:52:51.199Z,96301.80
2023-07-31T21:55:21.856Z,96292.80
2023-07-31T21:57:49.909Z,96295.40
2023-07-31T22:00:17.963Z,96294.60
2023-07-31T22:02:46.038Z,96290.20
2023-07-31T22:05:14.136Z,96289.40
2023-07-31T22:07:43.234Z,96283.60
2023-07-31T22:10:13.769Z,96282.60
2023-07-31T22:12:41.746Z,96283.60
2023-07-31T22:15:10.756Z,96284.20
2023-07-31T22:17:38.787Z,96282.20
2023-07-31T22:20:07.532Z,96277.20
2023-07-31T22:22:36.122Z,96274.40
2023-07-31T22:25:04.421Z,96275.20
2023-07-31T22:27:32.631Z,96269.00
2023-07-31T22:30:00.768Z,96273.20
2023-07-31T22:32:28.907Z,96275.60
2023-07-31T22:34:57.022Z,96277.80
2023-07-31T22:37:25.321Z,96274.40
2023-07-31T22:39:54.209Z,96270.40
2023-07-31T22:42:22.177Z,96271.60
2023-07-31T22:44:50.204Z,96271.20
2023-07-31T22:47:18.283Z,96274.60
2023-07-31T22:49:48.462Z,96276.80
2023-07-31T22:52:16.535Z,96270.40
2023-07-31T22:54:44.805Z,96269.00
2023-07-31T22:57:12.839Z,96267.40
2023-07-31T22:59:40.734Z,96271.60
2023-07-31T23:02:10.591Z,96266.20
2023-07-31T23:04:38.826Z,96261.80
2023-07-31T23:07:08.011Z,96258.00
2023-07-31T23:09:36.090Z,96259.60
2023-07-31T23:12:04.375Z,96248.80
2023-07-31T23:14:32.926Z,96250.40
2023-07-31T23:17:00.941Z,96250.00
2023-07-31T23:19:29.167Z,96253.20
2023-07-31T23:21:57.161Z,96248.80
2023-07-31T23:24:25.392Z,96245.80
2023-07-31T23:26:53.589Z,96241.40
2023-07-31T23:29:22.633Z,96242.40
2023-07-31T23:31:50.906Z,96241.40
2023-07-31T23:34:18.894Z,96245.00
2023-07-31T23:36:46.934Z,96242.00
2023-07-31T23:39:15.006Z,96245.20
2023-07-31T23:41:43.131Z,96245.00
2023-07-31T23:44:11.172Z,96249.00
2023-07-31T23:46:40.079Z,96247.00
2023-07-31T23:49:08.259Z,96241.60
2023-07-31T23:51:36.227Z,96241.20
2023-07-31T23:54:04.322Z,96238.60
2023-07-31T23:56:33.071Z,96240.60
2023-07-31T23:59:01.139Z,96239.60
